createdAt,value
2022-08-31T00:02:14.505Z,91.40
2022-08-31T00:04:42.243Z,91.20
2022-08-31T00:07:09.292Z,91.00
2022-08-31T00:09:36.326Z,90.70
2022-08-31T00:12:03.636Z,90.60
2022-08-31T00:14:31.077Z,90.70
2022-08-31T00:16:58.539Z,90.90
2022-08-31T00:19:25.633Z,91.10
2022-08-31T00:21:52.808Z,91.30
2022-08-31T00:24:19.783Z,91.40
2022-08-31T00:26:47.096Z,91.50
2022-08-31T00:29:14.146Z,91.40
2022-08-31T00:31:41.407Z,91.40
2022-08-31T00:34:08.426Z,91.30
2022-08-31T00:36:35.751Z,91.10
2022-08-31T00:39:04.000Z,90.90
2022-08-31T00:41:31.358Z,90.90
2022-08-31T00:44:02.608Z,90.90
2022-08-31T00:46:38.206Z,90.90
2022-08-31T00:49:07.963Z,90.90
2022-08-31T00:51:44.972Z,90.80
2022-08-31T00:54:15.221Z,90.60
2022-08-31T00:56:44.898Z,90.40
2022-08-31T00:59:14.151Z,90.70
2022-08-31T01:01:41.376Z,90.30
2022-08-31T01:04:08.925Z,90.20
2022-08-31T01:06:36.589Z,90.10
2022-08-31T01:09:06.047Z,90.00
2022-08-31T01:11:34.563Z,90.00
2022-08-31T01:14:02.396Z,89.90
2022-08-31T01:16:44.599Z,89.90
2022-08-31T01:19:22.919Z,89.90
2022-08-31T01:22:13.930Z,89.80
2022-08-31T01:24:45.144Z,89.80
2022-08-31T01:27:13.992Z,89.90
2022-08-31T01:29:41.328Z,90.00
2022-08-31T01:32:09.045Z,90.10
2022-08-31T01:34:36.100Z,90.20
2022-08-31T01:37:03.294Z,90.20
2022-08-31T01:39:30.487Z,90.10
2022-08-31T01:41:58.912Z,90.00
2022-08-31T01:44:27.545Z,90.00
2022-08-31T01:46:55.425Z,90.00
2022-08-31T01:49:23.555Z,90.10
2022-08-31T01:51:52.029Z,90.20
2022-08-31T01:54:19.508Z,90.30
2022-08-31T01:56:48.643Z,90.40
2022-08-31T01:59:21.056Z,90.60
2022-08-31T02:02:01.078Z,90.40
2022-08-31T02:04:29.383Z,90.50
2022-08-31T02:06:59.103Z,90.60
2022-08-31T02:09:26.490Z,90.60
2022-08-31T02:11:53.798Z,90.60
2022-08-31T02:14:21.834Z,90.60
2022-08-31T02:16:50.639Z,90.60
2022-08-31T02:19:18.287Z,90.60
2022-08-31T02:21:45.324Z,90.60
2022-08-31T02:24:12.576Z,90.70
2022-08-31T02:26:40.112Z,90.80
2022-08-31T02:29:08.100Z,90.90
2022-08-31T02:31:35.536Z,90.80
2022-08-31T02:34:03.181Z,90.80
2022-08-31T02:36:32.324Z,90.80
2022-08-31T02:39:03.977Z,90.70
2022-08-31T02:41:33.530Z,90.60
2022-08-31T02:44:00.492Z,90.50
2022-08-31T02:46:27.786Z,90.50
2022-08-31T02:49:21.665Z,90.50
2022-08-31T02:51:49.479Z,90.60
2022-08-31T02:54:17.007Z,90.60
2022-08-31T02:56:44.035Z,90.70
2022-08-31T02:59:11.279Z,90.70
2022-08-31T03:01:40.019Z,90.70
2022-08-31T03:04:07.228Z,90.80
2022-08-31T03:06:34.439Z,90.80
2022-08-31T03:09:02.655Z,90.90
2022-08-31T03:11:29.804Z,90.90
2022-08-31T03:13:58.838Z,90.80
2022-08-31T03:16:26.949Z,90.70
2022-08-31T03:18:54.314Z,90.60
2022-08-31T03:21:21.414Z,90.50
2022-08-31T03:23:48.400Z,90.50
2022-08-31T03:26:15.526Z,90.50
2022-08-31T03:28:42.550Z,90.40
2022-08-31T03:31:35.588Z,90.30
2022-08-31T03:34:03.378Z,90.10
2022-08-31T03:36:30.871Z,89.80
2022-08-31T03:38:57.926Z,89.40
2022-08-31T03:41:26.150Z,89.30
2022-08-31T03:43:53.361Z,88.40
2022-08-31T03:46:20.409Z,87.80
2022-08-31T03:48:47.527Z,87.40
2022-08-31T03:51:16.194Z,87.00
2022-08-31T03:53:43.490Z,86.50
2022-08-31T03:56:16.653Z,86.20
2022-08-31T03:58:43.654Z,86.20
2022-08-31T04:01:14.054Z,86.00
2022-08-31T04:04:13.391Z,85.70
2022-08-31T04:06:49.519Z,85.30
2022-08-31T04:09:34.960Z,85.10
2022-08-31T04:12:02.046Z,85.20
2022-08-31T04:14:47.423Z,85.30
2022-08-31T04:17:33.563Z,85.10
2022-08-31T04:20:24.455Z,85.10
2022-08-31T04:22:56.727Z,85.30
2022-08-31T04:25:41.088Z,85.60
2022-08-31T04:28:09.180Z,85.80
2022-08-31T04:30:44.888Z,86.00
2022-08-31T04:33:16.186Z,86.10
2022-08-31T04:35:43.712Z,86.20
2022-08-31T04:38:11.235Z,86.10
2022-08-31T04:40:42.464Z,86.00
2022-08-31T04:43:10.685Z,85.90
2022-08-31T04:45:42.497Z,85.90
2022-08-31T04:48:13.066Z,86.00
2022-08-31T04:50:42.965Z,86.00
2022-08-31T04:53:10.362Z,86.10
2022-08-31T04:55:43.638Z,86.20
2022-08-31T04:58:13.083Z,86.20
2022-08-31T05:00:43.883Z,86.20
2022-08-31T05:03:44.007Z,86.30
2022-08-31T05:06:16.580Z,86.40
2022-08-31T05:08:44.361Z,86.40
2022-08-31T05:11:14.819Z,86.40
2022-08-31T05:13:42.288Z,86.30
2022-08-31T05:16:12.689Z,86.00
2022-08-31T05:18:41.632Z,85.80
2022-08-31T05:21:16.155Z,85.50
2022-08-31T05:23:45.712Z,84.70
2022-08-31T05:26:26.458Z,84.60
2022-08-31T05:28:55.136Z,84.80
2022-08-31T05:31:23.355Z,85.00
2022-08-31T05:33:51.740Z,85.20
2022-08-31T05:36:27.964Z,85.30
2022-08-31T05:39:00.287Z,85.00
2022-08-31T05:41:30.614Z,84.50
2022-08-31T05:43:57.981Z,84.10
2022-08-31T05:46:25.876Z,84.50
2022-08-31T05:48:52.924Z,83.50
2022-08-31T05:51:21.500Z,83.10
2022-08-31T05:53:49.356Z,82.70
2022-08-31T05:56:26.639Z,82.40
2022-08-31T05:58:56.667Z,81.90
2022-08-31T06:01:32.335Z,81.70
2022-08-31T06:04:03.110Z,81.30
2022-08-31T06:06:30.424Z,80.90
2022-08-31T06:08:58.307Z,80.50
2022-08-31T06:11:30.004Z,77.90
2022-08-31T06:13:59.976Z,74.00
2022-08-31T06:16:30.268Z,70.80
2022-08-31T06:18:59.565Z,68.40
2022-08-31T06:21:31.964Z,67.50
2022-08-31T06:24:00.158Z,68.00
2022-08-31T06:26:31.988Z,68.90
2022-08-31T06:29:02.478Z,69.70
2022-08-31T06:31:36.028Z,70.40
2022-08-31T06:34:07.192Z,71.00
2022-08-31T06:36:56.940Z,71.00
2022-08-31T06:39:45.065Z,69.20
2022-08-31T06:42:41.659Z,67.10
2022-08-31T06:45:27.548Z,66.60
2022-08-31T06:48:03.453Z,66.60
2022-08-31T06:50:30.627Z,67.30
2022-08-31T06:52:58.652Z,67.80
2022-08-31T06:55:49.004Z,68.30
2022-08-31T06:58:34.931Z,69.50
2022-08-31T07:01:18.757Z,69.00
2022-08-31T07:04:11.079Z,69.30
2022-08-31T07:06:44.059Z,69.50
2022-08-31T07:09:15.874Z,69.20
2022-08-31T07:11:49.045Z,68.70
2022-08-31T07:14:21.981Z,68.00
2022-08-31T07:16:50.673Z,67.80
2022-08-31T07:19:19.002Z,68.10
2022-08-31T07:21:52.043Z,68.60
2022-08-31T07:24:25.655Z,69.10
2022-08-31T07:26:59.352Z,69.10
2022-08-31T07:29:40.703Z,69.00
2022-08-31T07:32:14.286Z,68.00
2022-08-31T07:34:43.988Z,66.90
2022-08-31T07:37:52.854Z,64.40
2022-08-31T07:40:43.455Z,59.90
2022-08-31T07:43:13.214Z,57.20
2022-08-31T07:45:41.606Z,55.90
2022-08-31T07:48:09.848Z,55.30
2022-08-31T07:51:06.107Z,54.70
2022-08-31T07:53:45.065Z,53.30
2022-08-31T07:56:37.206Z,51.80
2022-08-31T07:59:14.246Z,49.80
2022-08-31T08:01:43.726Z,49.10
2022-08-31T08:04:15.523Z,49.50
2022-08-31T08:07:05.901Z,50.60
2022-08-31T08:09:55.896Z,52.00
2022-08-31T08:12:48.365Z,53.30
2022-08-31T08:15:25.791Z,54.20
2022-08-31T08:18:13.326Z,55.00
2022-08-31T08:20:48.027Z,56.00
2022-08-31T08:23:18.307Z,56.70
2022-08-31T08:26:21.580Z,57.10
2022-08-31T08:29:07.922Z,57.50
2022-08-31T08:31:41.912Z,57.70
2022-08-31T08:34:09.468Z,57.60
2022-08-31T08:36:39.606Z,56.60
2022-08-31T08:39:08.904Z,55.80
2022-08-31T08:41:40.380Z,53.90
2022-08-31T08:44:10.987Z,53.00
2022-08-31T08:46:52.935Z,53.10
2022-08-31T08:49:28.422Z,53.60
2022-08-31T08:52:10.656Z,54.00
2022-08-31T08:54:42.392Z,55.00
2022-08-31T08:57:15.148Z,55.40
2022-08-31T08:59:45.801Z,54.50
2022-08-31T09:02:24.066Z,52.10
2022-08-31T09:04:59.595Z,49.30
2022-08-31T09:08:19.635Z,47.80
2022-08-31T09:11:17.560Z,44.80
2022-08-31T09:14:22.229Z,44.00
2022-08-31T09:17:24.990Z,43.30
2022-08-31T09:20:05.753Z,43.10
2022-08-31T09:22:55.725Z,43.60
2022-08-31T09:25:34.707Z,44.40
2022-08-31T09:28:38.990Z,45.70
2022-08-31T09:31:06.109Z,47.90
2022-08-31T09:33:44.572Z,49.40
2022-08-31T09:36:22.633Z,51.10
2022-08-31T09:38:50.282Z,51.10
2022-08-31T09:41:28.877Z,51.70
2022-08-31T09:44:21.508Z,52.50
2022-08-31T09:46:51.841Z,53.90
2022-08-31T09:49:22.537Z,54.70
2022-08-31T09:51:49.691Z,55.00
2022-08-31T09:54:35.265Z,55.00
2022-08-31T09:57:05.641Z,55.00
2022-08-31T09:59:38.433Z,54.80
2022-08-31T10:02:08.076Z,54.40
2022-08-31T10:04:46.129Z,54.30
2022-08-31T10:07:44.221Z,54.20
2022-08-31T10:10:30.068Z,54.20
2022-08-31T10:13:01.439Z,54.70
2022-08-31T10:15:36.002Z,55.20
2022-08-31T10:18:19.704Z,55.40
2022-08-31T10:20:56.054Z,55.70
2022-08-31T10:23:54.176Z,55.00
2022-08-31T10:26:34.066Z,54.60
2022-08-31T10:29:06.295Z,53.70
2022-08-31T10:31:36.980Z,52.30
2022-08-31T10:34:36.986Z,48.80
2022-08-31T10:37:12.632Z,44.60
2022-08-31T10:39:52.196Z,42.90
2022-08-31T10:42:25.856Z,42.30
2022-08-31T10:45:15.178Z,42.60
2022-08-31T10:47:49.101Z,44.20
2022-08-31T10:50:27.383Z,45.50
2022-08-31T10:53:13.645Z,46.60
2022-08-31T10:55:46.608Z,46.30
2022-08-31T10:58:24.491Z,46.70
2022-08-31T11:00:51.468Z,48.00
2022-08-31T11:03:26.108Z,47.50
2022-08-31T11:06:20.465Z,46.30
2022-08-31T11:09:05.757Z,45.20
2022-08-31T11:11:43.985Z,43.70
2022-08-31T11:14:29.870Z,41.30
2022-08-31T11:17:05.471Z,40.90
2022-08-31T11:19:56.190Z,41.20
2022-08-31T11:22:45.112Z,42.50
2022-08-31T11:25:17.881Z,44.70
2022-08-31T11:27:54.552Z,45.50
2022-08-31T11:30:27.281Z,45.20
2022-08-31T11:32:57.401Z,45.50
2022-08-31T11:36:06.477Z,46.50
2022-08-31T11:39:03.601Z,47.70
2022-08-31T11:41:34.720Z,48.60
2022-08-31T11:44:04.471Z,49.90
2022-08-31T11:46:34.317Z,51.00
2022-08-31T11:49:01.446Z,52.20
2022-08-31T11:51:41.150Z,53.20
2022-08-31T11:54:26.351Z,53.30
2022-08-31T11:56:57.004Z,53.00
2022-08-31T11:59:32.603Z,51.60
2022-08-31T12:02:21.388Z,50.00
2022-08-31T12:05:02.953Z,47.80
2022-08-31T12:07:42.476Z,45.20
2022-08-31T12:10:15.567Z,44.20
2022-08-31T12:12:57.740Z,42.10
2022-08-31T12:15:30.929Z,39.90
2022-08-31T12:18:46.202Z,39.10
2022-08-31T12:22:02.032Z,38.20
2022-08-31T12:25:05.245Z,37.10
2022-08-31T12:27:49.018Z,35.60
2022-08-31T12:30:21.585Z,34.80
2022-08-31T12:33:04.257Z,34.70
2022-08-31T12:35:33.113Z,34.80
2022-08-31T12:38:00.024Z,35.00
2022-08-31T12:40:33.676Z,35.60
2022-08-31T12:43:02.538Z,36.70
2022-08-31T12:45:56.742Z,36.70
2022-08-31T12:48:58.271Z,36.90
2022-08-31T12:52:02.761Z,39.30
2022-08-31T12:54:38.819Z,41.90
2022-08-31T12:57:43.675Z,44.30
2022-08-31T13:00:33.245Z,43.50
2022-08-31T13:03:21.944Z,42.60
2022-08-31T13:06:08.401Z,42.30
2022-08-31T13:08:44.660Z,42.30
2022-08-31T13:11:40.876Z,43.70
2022-08-31T13:14:23.011Z,43.90
2022-08-31T13:16:58.293Z,44.40
2022-08-31T13:19:31.000Z,45.80
2022-08-31T13:22:12.167Z,47.00
2022-08-31T13:24:41.833Z,47.60
2022-08-31T13:27:19.714Z,46.90
2022-08-31T13:29:48.916Z,45.70
2022-08-31T13:32:25.305Z,47.50
2022-08-31T13:34:52.459Z,48.30
2022-08-31T13:37:30.705Z,47.80
2022-08-31T13:40:04.741Z,46.40
2022-08-31T13:42:41.329Z,45.90
2022-08-31T13:45:26.932Z,45.20
2022-08-31T13:47:59.097Z,45.00
2022-08-31T13:50:34.566Z,46.60
2022-08-31T13:53:25.869Z,47.60
2022-08-31T13:55:52.335Z,46.50
2022-08-31T13:58:32.789Z,45.90
2022-08-31T14:01:24.448Z,45.10
2022-08-31T14:03:59.597Z,44.80
2022-08-31T14:06:29.628Z,44.90
2022-08-31T14:09:03.581Z,45.00
2022-08-31T14:11:33.874Z,44.90
2022-08-31T14:14:08.277Z,45.90
2022-08-31T14:16:43.665Z,46.50
2022-08-31T14:19:38.729Z,47.10
2022-08-31T14:22:30.126Z,48.20
2022-08-31T14:24:57.394Z,49.70
2022-08-31T14:27:24.628Z,49.60
2022-08-31T14:29:52.291Z,50.00
2022-08-31T14:32:22.204Z,50.40
2022-08-31T14:34:51.175Z,51.20
2022-08-31T14:37:23.899Z,51.60
2022-08-31T14:40:05.655Z,52.10
2022-08-31T14:42:37.627Z,51.90
2022-08-31T14:45:18.605Z,52.40
2022-08-31T14:47:47.983Z,52.60
2022-08-31T14:50:21.490Z,52.10
2022-08-31T14:52:57.552Z,52.60
2022-08-31T14:55:27.246Z,52.80
2022-08-31T14:58:01.558Z,52.40
2022-08-31T15:00:31.869Z,52.30
2022-08-31T15:03:02.496Z,52.20
2022-08-31T15:05:29.586Z,52.20
2022-08-31T15:07:56.960Z,52.70
2022-08-31T15:10:25.911Z,53.50
2022-08-31T15:12:53.738Z,54.00
2022-08-31T15:15:21.391Z,54.60
2022-08-31T15:17:51.505Z,55.20
2022-08-31T15:20:21.010Z,55.20
2022-08-31T15:22:48.676Z,55.60
2022-08-31T15:25:17.059Z,55.90
2022-08-31T15:27:44.533Z,56.20
2022-08-31T15:30:17.969Z,56.60
2022-08-31T15:32:48.009Z,56.70
2022-08-31T15:35:19.048Z,56.60
2022-08-31T15:37:58.709Z,56.70
2022-08-31T15:40:27.967Z,56.40
2022-08-31T15:42:56.333Z,56.20
2022-08-31T15:45:27.982Z,56.20
2022-08-31T15:48:13.857Z,56.10
2022-08-31T15:50:51.092Z,56.10
2022-08-31T15:53:27.364Z,55.60
2022-08-31T15:55:54.378Z,55.20
2022-08-31T15:58:24.901Z,54.60
2022-08-31T16:00:52.406Z,54.90
2022-08-31T16:03:19.393Z,54.60
2022-08-31T16:05:46.490Z,54.90
2022-08-31T16:08:14.136Z,55.30
2022-08-31T16:10:46.730Z,55.40
2022-08-31T16:13:15.837Z,55.80
2022-08-31T16:15:51.621Z,55.30
2022-08-31T16:18:22.369Z,55.20
2022-08-31T16:20:50.528Z,55.20
2022-08-31T16:23:18.151Z,55.40
2022-08-31T16:25:48.589Z,55.50
2022-08-31T16:28:18.521Z,56.20
2022-08-31T16:30:45.714Z,57.70
2022-08-31T16:33:12.709Z,58.70
2022-08-31T16:35:39.759Z,59.30
2022-08-31T16:38:07.145Z,60.20
2022-08-31T16:40:35.449Z,60.70
2022-08-31T16:43:03.006Z,61.10
2022-08-31T16:45:30.088Z,61.10
2022-08-31T16:48:17.092Z,61.50
2022-08-31T16:50:48.576Z,61.30
2022-08-31T16:53:17.979Z,61.60
2022-08-31T16:55:47.459Z,62.00
2022-08-31T16:58:29.655Z,62.90
2022-08-31T17:01:03.684Z,63.40
2022-08-31T17:03:30.751Z,64.00
2022-08-31T17:05:57.788Z,64.50
2022-08-31T17:08:24.781Z,65.20
2022-08-31T17:10:51.788Z,66.00
2022-08-31T17:13:18.753Z,66.90
2022-08-31T17:15:45.802Z,68.20
2022-08-31T17:18:12.781Z,69.10
2022-08-31T17:20:40.860Z,70.30
2022-08-31T17:23:09.195Z,71.40
2022-08-31T17:25:37.115Z,72.40
2022-08-31T17:28:07.915Z,73.70
2022-08-31T17:30:35.235Z,74.60
2022-08-31T17:33:02.182Z,75.70
2022-08-31T17:35:32.011Z,76.80
2022-08-31T17:37:59.703Z,77.70
2022-08-31T17:40:27.518Z,78.50
2022-08-31T17:42:59.608Z,78.90
2022-08-31T17:45:27.156Z,79.70
2022-08-31T17:47:54.927Z,80.60
2022-08-31T17:50:22.083Z,81.40
2022-08-31T17:52:49.071Z,82.10
2022-08-31T17:55:16.445Z,83.20
2022-08-31T17:57:44.109Z,83.40
2022-08-31T18:00:14.524Z,83.50
2022-08-31T18:02:41.970Z,84.20
2022-08-31T18:05:12.079Z,85.00
2022-08-31T18:07:40.721Z,85.90
2022-08-31T18:10:08.972Z,86.70
2022-08-31T18:12:41.166Z,86.90
2022-08-31T18:15:14.457Z,87.00
2022-08-31T18:17:42.052Z,87.80
2022-08-31T18:20:10.613Z,88.60
2022-08-31T18:22:37.725Z,90.10
2022-08-31T18:25:05.117Z,90.10
2022-08-31T18:27:32.154Z,90.10
2022-08-31T18:30:00.902Z,90.30
2022-08-31T18:32:34.156Z,90.60
2022-08-31T18:35:01.157Z,90.90
2022-08-31T18:37:28.426Z,91.00
2022-08-31T18:40:13.863Z,91.20
2022-08-31T18:42:59.570Z,91.60
2022-08-31T18:45:27.801Z,92.10
2022-08-31T18:50:45.791Z,92.80
2022-08-31T18:53:28.818Z,93.20
2022-08-31T18:56:08.025Z,93.30
2022-08-31T18:58:35.815Z,93.90
2022-08-31T19:01:03.326Z,94.10
2022-08-31T19:03:30.606Z,94.30
2022-08-31T19:05:58.027Z,94.70
2022-08-31T19:08:26.410Z,95.30
2022-08-31T19:10:56.246Z,95.90
2022-08-31T19:13:26.265Z,96.50
2022-08-31T19:15:55.112Z,97.00
2022-08-31T19:18:25.038Z,97.60
2022-08-31T19:20:52.125Z,98.30
2022-08-31T19:23:20.294Z,99.00
2022-08-31T19:25:48.332Z,99.30
2022-08-31T19:28:15.359Z,99.40
2022-08-31T19:30:48.573Z,99.70
2022-08-31T19:33:16.266Z,99.90
2022-08-31T19:35:44.272Z,99.90
2022-08-31T19:38:12.025Z,99.90
2022-08-31T19:40:40.019Z,99.90
2022-08-31T19:45:54.416Z,99.90
2022-08-31T19:48:23.361Z,99.90
2022-08-31T19:50:51.586Z,99.90
2022-08-31T19:53:21.948Z,99.90
2022-08-31T19:55:53.430Z,99.90
2022-08-31T19:58:25.558Z,99.90
2022-08-31T20:01:04.300Z,99.90
2022-08-31T20:03:34.072Z,99.90
2022-08-31T20:06:27.584Z,99.90
2022-08-31T20:08:54.829Z,99.90
2022-08-31T20:11:26.560Z,99.90
2022-08-31T20:13:54.618Z,99.90
2022-08-31T20:16:22.240Z,99.90
2022-08-31T20:18:57.677Z,99.90
2022-08-31T20:21:27.534Z,99.90
2022-08-31T20:23:57.816Z,99.90
2022-08-31T20:26:36.062Z,99.90
2022-08-31T20:29:08.850Z,99.90
2022-08-31T20:31:42.206Z,99.90
2022-08-31T20:34:18.542Z,99.90
2022-08-31T20:36:49.251Z,99.90
2022-08-31T20:39:18.083Z,99.90
2022-08-31T20:41:47.957Z,99.90
2022-08-31T20:44:29.999Z,99.90
2022-08-31T20:47:18.350Z,99.90
2022-08-31T20:50:07.450Z,99.90
2022-08-31T20:52:35.491Z,99.90
2022-08-31T20:55:05.012Z,99.90
2022-08-31T20:57:34.344Z,99.90
2022-08-31T21:00:05.209Z,99.90
2022-08-31T21:02:34.163Z,99.90
2022-08-31T21:05:20.798Z,99.90
2022-08-31T21:07:49.357Z,99.90
2022-08-31T21:10:16.626Z,99.90
2022-08-31T21:12:53.255Z,99.90
2022-08-31T21:15:25.984Z,99.90
2022-08-31T21:17:57.063Z,99.90
2022-08-31T21:20:25.539Z,99.90
2022-08-31T21:22:53.576Z,99.90
2022-08-31T21:25:21.028Z,99.90
2022-08-31T21:27:48.017Z,99.90
2022-08-31T21:30:15.515Z,99.90
2022-08-31T21:32:42.586Z,99.90
2022-08-31T21:35:12.075Z,99.90
2022-08-31T21:37:40.359Z,99.90
2022-08-31T21:40:08.278Z,99.90
2022-08-31T21:42:35.262Z,99.90
2022-08-31T21:45:02.228Z,99.90
2022-08-31T21:47:29.254Z,99.90
2022-08-31T21:49:56.270Z,99.90
2022-08-31T21:52:24.892Z,99.90
2022-08-31T21:54:51.917Z,99.90
2022-08-31T21:57:18.992Z,99.90
2022-08-31T21:59:45.982Z,99.90
2022-08-31T22:02:13.982Z,99.90
2022-08-31T22:04:43.085Z,99.90
2022-08-31T22:07:14.135Z,99.90
2022-08-31T22:09:42.631Z,99.90
2022-08-31T22:12:12.853Z,99.90
2022-08-31T22:14:41.323Z,99.90
2022-08-31T22:17:09.512Z,99.90
2022-08-31T22:19:39.480Z,99.90
2022-08-31T22:22:11.834Z,99.90
2022-08-31T22:24:40.784Z,99.90
2022-08-31T22:27:10.274Z,99.90
2022-08-31T22:29:38.097Z,99.90
2022-08-31T22:32:10.016Z,99.90
2022-08-31T22:34:38.866Z,99.90
2022-08-31T22:37:06.533Z,99.90
2022-08-31T22:39:33.685Z,99.90
2022-08-31T22:42:04.937Z,99.90
2022-08-31T22:44:34.293Z,99.90
2022-08-31T22:47:01.848Z,99.90
2022-08-31T22:49:29.154Z,99.90
2022-08-31T22:51:57.681Z,99.90
2022-08-31T22:54:25.002Z,99.90
2022-08-31T22:56:52.885Z,99.90
2022-08-31T22:59:27.065Z,99.90
2022-08-31T23:02:03.426Z,99.90
2022-08-31T23:04:33.533Z,99.90
2022-08-31T23:07:03.644Z,99.90
2022-08-31T23:09:32.111Z,99.90
2022-08-31T23:12:01.173Z,99.90
2022-08-31T23:14:28.850Z,99.90
2022-08-31T23:16:58.947Z,99.90
2022-08-31T23:19:33.452Z,99.90
2022-08-31T23:22:01.992Z,99.90
2022-08-31T23:24:30.833Z,99.90
2022-08-31T23:27:04.214Z,99.90
2022-08-31T23:29:40.045Z,99.90
2022-08-31T23:32:12.118Z,99.90
2022-08-31T23:34:41.322Z,99.90
2022-08-31T23:37:10.479Z,99.90
2022-08-31T23:39:40.804Z,99.90
2022-08-31T23:42:09.238Z,99.90
2022-08-31T23:44:36.426Z,99.90
2022-08-31T23:47:03.391Z,99.90
2022-08-31T23:49:30.384Z,99.90
2022-08-31T23:51:57.319Z,99.90
2022-08-31T23:54:25.126Z,99.90
2022-08-31T23:56:56.900Z,99.90
2022-08-31T23:59:25.188Z,99.90
